Accueil
METAR-TAF:

METAR-TAF

Aéroports :

Aéroport international des Seychelles

Victoria, Mahé, Seychelles

latitude: 04-40S, longitude: 055-31E, altitude: 3 m

Observation

Le bulletin a été fait il y a 1 heure et 3 minutes, à 23:00 UTC
Vent 7 kt de nord-ouest
Température 29°C
Humidité 79%
Pression 1009 hPa
Visibilité 10 km ou plus
Nuages fragmentés à une hauteur de 1900 ft

METAR: FSIA 212300Z 31007KT 9999 BKN019 29/25 Q1009 NOSIG

Heure: 04:03 (00:03 UTC)

Prévision

Le bulletin a été fait il y a 7 heures et 1 minutes, à 17:02 UTC
Prévision valable du 21 à 18 UTC au 22 à 18 UTC
Vent 10 kt de nord/nord-ouest
Visibilité 10 km ou plus
Nuages épars à une hauteur de 2000 ft

TAF: FSIA 211702Z 2118/2218 34010KT 9999 SCT020

Observations et prévisions météorologiques de plus de 4000 aéroports (messages METAR et TAF).

Les stations disponibles sont représentées par des disques jaunes et rouges sur la carte.

Passer la souris dessus pour voir le nom de la station.

Cliquer dessus pour voir les observations et prévisions météorologiques.

Pour changer de carte: cliquez sur les boutons verts avec une croix noire pour zoomer, sur le bouton vert avec un tiret pour effectuer un zoom arrière, ou sur les flèches vertes pour les cartes adjacentes.


METAR-TAF: